Time;durP1;ratioP1;P1;durP2;ratioP2;P2;SDS_P1;SDS_P2;PMS_P1;PMS_P2;Temp;Humidity;BMP_temperature;BMP_pressure;BME280_temperature;BME280_humidity;BME280_pressure;Samples;Min_cycle;Max_cycle;Signal;HPM_P1;HPM_P2
2023/05/21 00:02:17;;;;;;;4.28;2.22;;;14.70;99.90;;;;;;5155777;27;20466;-72
2023/05/21 00:04:43;;;;;;;2.78;2.20;;;14.70;99.90;;;;;;5155483;27;20043;-72
2023/05/21 00:07:10;;;;;;;4.15;2.40;;;14.70;99.90;;;;;;5137320;27;20085;-72
2023/05/21 00:09:37;;;;;;;3.92;2.13;;;14.70;99.90;;;;;;5155576;27;20091;-72
2023/05/21 00:12:06;;;;;;;3.05;2.10;;;14.70;99.90;;;;;;5155793;27;20137;-72
2023/05/21 00:14:33;;;;;;;3.70;2.15;;;14.70;99.90;;;;;;5137050;27;20531;-71
2023/05/21 00:16:59;;;;;;;2.78;1.98;;;14.70;99.90;;;;;;5155152;27;20141;-71
2023/05/21 00:19:25;;;;;;;4.47;2.78;;;14.70;99.90;;;;;;5137337;27;20538;-72
2023/05/21 00:21:51;;;;;;;3.50;2.40;;;14.60;99.90;;;;;;5155771;27;20093;-72
2023/05/21 00:24:17;;;;;;;4.45;2.15;;;14.60;99.90;;;;;;5155489;27;20074;-72
2023/05/21 00:26:43;;;;;;;3.35;2.58;;;14.70;99.90;;;;;;5154700;27;20039;-72
2023/05/21 00:29:09;;;;;;;3.88;2.38;;;14.60;99.90;;;;;;5154818;27;20053;-71
2023/05/21 00:31:34;;;;;;;4.47;2.17;;;14.60;99.90;;;;;;5155568;27;20039;-72
2023/05/21 00:34:00;;;;;;;4.50;3.08;;;14.60;99.90;;;;;;5155117;27;20042;-72
2023/05/21 00:36:26;;;;;;;4.25;2.38;;;14.60;99.90;;;;;;5154808;27;20038;-72
2023/05/21 00:38:51;;;;;;;3.25;2.42;;;14.60;99.90;;;;;;5155066;27;20042;-72
2023/05/21 00:41:18;;;;;;;4.03;2.67;;;14.60;99.90;;;;;;5155527;27;20483;-71
2023/05/21 00:43:44;;;;;;;5.28;3.17;;;14.60;99.90;;;;;;5155145;27;20042;-72
2023/05/21 00:46:17;;;;;;;4.35;2.40;;;14.60;99.90;;;;;;5155172;27;20046;-72
2023/05/21 00:48:44;;;;;;;4.20;2.90;;;14.50;99.90;;;;;;5154905;27;20038;-72
2023/05/21 00:51:11;;;;;;;3.00;2.38;;;14.60;99.90;;;;;;5155206;27;20045;-72
2023/05/21 00:53:37;;;;;;;4.60;2.30;;;14.50;99.90;;;;;;5155187;27;20113;-72
2023/05/21 00:56:03;;;;;;;4.50;2.35;;;14.50;99.90;;;;;;5154829;27;20046;-71
2023/05/21 00:58:32;;;;;;;3.58;2.33;;;14.50;99.90;;;;;;5135566;27;20078;-72
2023/05/21 01:01:02;;;;;;;5.05;3.20;;;14.50;99.90;;;;;;5155083;27;20078;-71
2023/05/21 01:03:29;;;;;;;3.50;2.58;;;14.50;99.90;;;;;;5155002;27;20038;-71
2023/05/21 01:05:58;;;;;;;5.05;2.72;;;14.40;99.90;;;;;;5136244;27;20039;-71
2023/05/21 01:08:27;;;;;;;4.43;2.60;;;14.40;99.90;;;;;;5136718;27;20072;-71
2023/05/21 01:10:53;;;;;;;5.03;3.20;;;14.40;99.90;;;;;;5154859;27;20597;-71
2023/05/21 01:13:21;;;;;;;5.18;2.92;;;14.40;99.90;;;;;;5154639;27;20038;-71
2023/05/21 01:15:49;;;;;;;4.03;2.72;;;14.40;99.90;;;;;;5154638;27;20420;-71
2023/05/21 01:18:15;;;;;;;4.25;2.70;;;14.40;99.90;;;;;;5154241;27;20065;-71
2023/05/21 01:20:46;;;;;;;5.18;2.72;;;14.40;99.90;;;;;;5136549;27;20046;-72
2023/05/21 01:23:21;;;;;;;3.80;2.53;;;14.40;99.90;;;;;;5136687;27;20054;-72
2023/05/21 01:25:47;;;;;;;4.70;3.00;;;14.40;99.90;;;;;;5133741;28;20119;-71
2023/05/21 01:28:13;;;;;;;6.90;2.72;;;14.40;99.90;;;;;;5132986;28;20482;-71
2023/05/21 01:30:40;;;;;;;4.55;2.92;;;14.40;99.90;;;;;;5153302;27;20046;-71
2023/05/21 01:33:28;;;;;;;3.38;2.88;;;14.40;99.90;;;;;;5136644;27;20126;-71
2023/05/21 01:36:07;;;;;;;4.63;3.03;;;14.30;99.90;;;;;;5133592;28;20046;-71
2023/05/21 01:38:41;;;;;;;4.95;3.13;;;14.30;99.90;;;;;;5137359;27;20043;-71
2023/05/21 01:41:10;;;;;;;5.68;2.80;;;14.30;99.90;;;;;;5158986;27;20043;-72
2023/05/21 01:43:38;;;;;;;5.60;2.60;;;14.40;99.90;;;;;;5158697;27;20490;-72
2023/05/21 01:46:05;;;;;;;6.90;3.17;;;14.40;99.90;;;;;;5140395;27;20042;-71
2023/05/21 01:48:31;;;;;;;3.90;2.50;;;14.30;99.90;;;;;;5158407;27;20121;-72
2023/05/21 01:51:00;;;;;;;5.47;3.03;;;14.40;99.90;;;;;;5158390;27;20527;-71
2023/05/21 01:53:26;;;;;;;4.10;2.92;;;14.30;99.90;;;;;;5158225;27;20043;-71
2023/05/21 01:55:53;;;;;;;6.07;3.05;;;14.30;99.90;;;;;;5158446;27;20049;-71
2023/05/21 01:58:20;;;;;;;6.03;2.63;;;14.30;99.90;;;;;;5138778;27;20508;-71
2023/05/21 02:00:46;;;;;;;4.20;2.65;;;14.30;99.90;;;;;;5158380;27;20121;-71
2023/05/21 02:03:13;;;;;;;6.47;2.55;;;14.30;99.90;;;;;;5140112;27;20086;-71
2023/05/21 02:05:39;;;;;;;4.95;2.85;;;14.30;99.90;;;;;;5139581;27;20490;-71
2023/05/21 02:08:07;;;;;;;5.95;2.83;;;14.30;99.90;;;;;;5157579;27;20103;-71
2023/05/21 02:10:33;;;;;;;5.68;2.67;;;13.70;99.90;;;;;;5157949;27;20082;-71
2023/05/21 02:12:59;;;;;;;5.57;2.70;;;14.20;99.90;;;;;;5158434;27;20039;-71
2023/05/21 02:15:25;;;;;;;4.65;2.47;;;14.20;99.90;;;;;;5157880;27;20045;-71
2023/05/21 02:17:51;;;;;;;5.45;2.72;;;14.20;99.90;;;;;;5157755;27;20053;-72
2023/05/21 02:20:18;;;;;;;4.10;2.45;;;14.20;99.90;;;;;;5157575;27;20083;-71
2023/05/21 02:22:47;;;;;;;3.72;2.47;;;14.20;99.90;;;;;;5139452;27;20074;-71
2023/05/21 02:25:15;;;;;;;12.50;3.33;;;14.20;99.90;;;;;;5158137;27;20047;-71
2023/05/21 02:27:42;;;;;;;5.15;2.55;;;14.10;99.90;;;;;;5138943;27;20045;-71
2023/05/21 02:30:12;;;;;;;4.97;2.72;;;14.10;99.90;;;;;;5157672;27;20078;-71
2023/05/21 02:32:41;;;;;;;5.13;2.72;;;14.10;99.90;;;;;;5157751;27;20047;-72
2023/05/21 02:35:08;;;;;;;5.10;2.80;;;14.10;99.90;;;;;;5157541;27;20046;-71
2023/05/21 02:37:34;;;;;;;4.88;2.28;;;14.10;99.90;;;;;;5157595;27;20386;-71
2023/05/21 02:40:02;;;;;;;4.18;2.70;;;14.10;99.90;;;;;;5157340;27;20134;-71
2023/05/21 02:42:29;;;;;;;5.03;2.72;;;14.10;99.90;;;;;;5157733;27;20046;-71
2023/05/21 02:44:55;;;;;;;5.25;2.50;;;14.10;99.90;;;;;;5157517;27;20080;-72
2023/05/21 02:47:22;;;;;;;4.10;2.92;;;14.00;99.90;;;;;;5157312;27;20046;-71
2023/05/21 02:49:49;;;;;;;5.00;2.97;;;14.00;99.90;;;;;;5138117;27;20054;-71
2023/05/21 02:52:18;;;;;;;5.97;2.55;;;14.00;99.90;;;;;;5157661;27;20047;-72
2023/05/21 02:54:45;;;;;;;5.75;2.78;;;14.00;99.90;;;;;;5157284;27;20402;-71
2023/05/21 02:57:11;;;;;;;5.40;2.85;;;14.00;99.90;;;;;;5156496;27;20035;-71
2023/05/21 02:59:37;;;;;;;6.60;3.33;;;13.90;99.90;;;;;;5157174;27;20034;-71
2023/05/21 03:02:03;;;;;;;5.50;2.58;;;13.90;99.90;;;;;;5157280;27;20112;-71
2023/05/21 03:04:29;;;;;;;6.10;3.22;;;13.90;99.90;;;;;;5157048;27;20035;-71
2023/05/21 03:06:55;;;;;;;4.72;2.72;;;13.80;99.90;;;;;;5138989;27;20042;-71
2023/05/21 03:09:21;;;;;;;5.28;3.28;;;13.80;99.90;;;;;;5156723;27;20047;-71
2023/05/21 03:11:48;;;;;;;6.68;3.25;;;13.80;99.90;;;;;;5156801;27;20061;-71
2023/05/21 03:14:15;;;;;;;7.07;3.00;;;13.80;99.90;;;;;;5138473;27;20061;-71
2023/05/21 03:16:42;;;;;;;5.85;3.50;;;13.70;99.90;;;;;;5156801;27;20039;-71
2023/05/21 03:19:08;;;;;;;5.25;2.90;;;13.70;99.90;;;;;;5156347;27;20504;-71
2023/05/21 03:21:35;;;;;;;6.88;3.10;;;13.70;99.90;;;;;;5136359;27;20125;-71
2023/05/21 03:24:01;;;;;;;5.03;3.22;;;13.70;99.90;;;;;;5136176;27;20078;-71
2023/05/21 03:26:28;;;;;;;4.95;2.95;;;13.70;99.90;;;;;;5155746;27;20051;-71
2023/05/21 03:28:55;;;;;;;6.53;3.28;;;13.70;99.90;;;;;;5155626;27;20046;-71
2023/05/21 03:31:21;;;;;;;5.45;2.92;;;13.60;99.90;;;;;;5138435;27;20057;-72
2023/05/21 03:33:47;;;;;;;5.13;2.92;;;13.60;99.90;;;;;;5138011;27;20103;-71
2023/05/21 03:36:13;;;;;;;4.97;2.78;;;12.90;99.90;;;;;;5156380;27;20042;-71
2023/05/21 03:38:39;;;;;;;5.95;2.90;;;13.60;99.90;;;;;;5156126;27;20046;-71
2023/05/21 03:41:08;;;;;;;5.57;2.90;;;13.60;99.90;;;;;;5156432;27;20047;-71
2023/05/21 03:43:33;;;;;;;3.38;2.42;;;13.50;99.90;;;;;;5156759;27;20563;-70
2023/05/21 03:45:59;;;;;;;5.95;3.63;;;13.50;99.90;;;;;;5157034;27;20047;-70
2023/05/21 03:48:25;;;;;;;7.15;3.03;;;13.50;99.90;;;;;;5155679;27;20068;-71
2023/05/21 03:50:50;;;;;;;5.68;3.10;;;13.50;99.90;;;;;;5156172;27;20091;-72
2023/05/21 03:53:16;;;;;;;6.50;3.15;;;13.50;99.90;;;;;;5156418;27;20046;-70
2023/05/21 03:55:42;;;;;;;6.45;2.95;;;13.50;99.90;;;;;;5155793;27;20047;-70
2023/05/21 03:58:09;;;;;;;5.70;3.00;;;13.50;99.90;;;;;;5154962;27;20054;-70
2023/05/21 04:00:39;;;;;;;4.38;2.80;;;13.50;99.90;;;;;;5154845;27;20089;-70
2023/05/21 04:03:05;;;;;;;4.05;2.72;;;13.50;99.90;;;;;;5156158;27;20398;-70
2023/05/21 04:05:31;;;;;;;5.50;2.80;;;13.50;99.90;;;;;;5155973;27;20050;-70
2023/05/21 04:07:58;;;;;;;6.43;2.60;;;13.50;99.90;;;;;;5137230;27;20050;-70
2023/05/21 04:10:25;;;;;;;4.57;2.63;;;13.50;99.90;;;;;;5155406;27;20122;-71
2023/05/21 04:12:51;;;;;;;4.75;2.65;;;13.50;99.90;;;;;;5156034;27;20042;-70
2023/05/21 04:15:18;;;;;;;6.38;2.60;;;13.50;99.90;;;;;;5155414;27;20505;-70
2023/05/21 04:17:44;;;;;;;4.80;2.72;;;13.50;99.90;;;;;;5155529;27;20063;-71
2023/05/21 04:20:12;;;;;;;4.45;2.25;;;13.50;99.90;;;;;;5155100;27;20043;-70
2023/05/21 04:22:38;;;;;;;5.78;2.42;;;13.50;99.90;;;;;;5155785;27;20520;-70
2023/05/21 04:25:04;;;;;;;4.18;2.60;;;13.50;99.90;;;;;;5155322;27;20035;-71
2023/05/21 04:27:30;;;;;;;5.43;2.78;;;13.50;99.90;;;;;;5155072;27;20117;-70
2023/05/21 04:29:56;;;;;;;5.45;2.72;;;13.50;99.90;;;;;;5154851;27;20558;-71
2023/05/21 04:32:23;;;;;;;4.90;2.60;;;13.50;99.90;;;;;;5155756;27;20058;-71
2023/05/21 04:34:49;;;;;;;4.00;2.33;;;13.50;99.90;;;;;;5136913;27;20100;-71
2023/05/21 04:37:18;;;;;;;4.22;2.45;;;13.50;99.90;;;;;;5155284;27;20051;-71
2023/05/21 04:39:44;;;;;;;4.35;2.53;;;13.50;99.90;;;;;;5154658;27;20482;-71
2023/05/21 04:42:09;;;;;;;3.20;2.00;;;13.50;99.90;;;;;;5155326;27;20140;-71
2023/05/21 04:44:37;;;;;;;4.57;2.20;;;13.50;99.90;;;;;;5154984;27;20058;-70
2023/05/21 04:47:03;;;;;;;5.35;2.60;;;13.50;99.90;;;;;;5155297;27;20034;-71
2023/05/21 04:49:29;;;;;;;6.38;2.20;;;13.50;99.90;;;;;;5156444;27;20049;-71
2023/05/21 04:51:55;;;;;;;7.10;2.88;;;13.50;99.90;;;;;;5155096;27;20042;-71
2023/05/21 04:54:21;;;;;;;4.13;2.42;;;13.50;99.90;;;;;;5155212;27;20046;-71
2023/05/21 04:56:47;;;;;;;6.13;2.25;;;13.50;99.90;;;;;;5155138;27;20046;-70
2023/05/21 04:59:13;;;;;;;4.47;2.28;;;13.50;99.90;;;;;;5153989;27;20049;-71
2023/05/21 05:01:39;;;;;;;2.70;1.83;;;13.50;99.90;;;;;;5155008;27;20050;-70
2023/05/21 05:04:05;;;;;;;4.63;2.17;;;13.50;99.90;;;;;;5155096;27;20043;-70
2023/05/21 05:06:30;;;;;;;6.25;2.50;;;13.50;99.90;;;;;;5154935;27;20047;-70
2023/05/21 05:08:56;;;;;;;3.85;2.70;;;13.50;99.90;;;;;;5154637;27;20038;-71
2023/05/21 05:11:22;;;;;;;11.65;2.55;;;13.60;99.90;;;;;;5136135;27;20123;-70
2023/05/21 05:13:47;;;;;;;5.82;2.50;;;13.50;99.90;;;;;;5136347;27;20042;-72
2023/05/21 05:16:23;;;;;;;3.95;2.05;;;13.50;99.90;;;;;;5136178;27;20046;-72
2023/05/21 05:18:50;;;;;;;4.32;1.88;;;13.60;99.90;;;;;;5154745;27;20057;-71
2023/05/21 05:21:16;;;;;;;4.13;2.10;;;13.60;99.90;;;;;;5154527;27;20105;-70
2023/05/21 05:23:42;;;;;;;4.68;1.80;;;13.60;99.90;;;;;;5154858;27;20047;-70
2023/05/21 05:26:08;;;;;;;3.00;1.60;;;13.60;99.90;;;;;;5136589;27;20070;-70
2023/05/21 05:28:33;;;;;;;5.20;2.00;;;13.60;99.90;;;;;;5154201;27;20049;-70
2023/05/21 05:30:59;;;;;;;5.22;2.10;;;13.60;99.90;;;;;;5154766;27;20039;-71
2023/05/21 05:33:25;;;;;;;4.55;1.92;;;13.60;99.90;;;;;;5154730;27;20043;-70
2023/05/21 05:35:50;;;;;;;2.88;1.48;;;13.60;99.90;;;;;;5154363;27;20046;-70
2023/05/21 05:38:16;;;;;;;5.65;2.17;;;13.60;99.90;;;;;;5154484;27;20094;-71
2023/05/21 05:40:42;;;;;;;3.83;1.80;;;13.60;99.90;;;;;;5154374;27;20046;-70
2023/05/21 05:43:07;;;;;;;4.75;1.80;;;13.70;99.90;;;;;;5136089;27;20046;-69
2023/05/21 05:45:33;;;;;;;4.38;2.50;;;13.70;99.90;;;;;;5154613;27;20122;-70
2023/05/21 05:47:59;;;;;;;4.85;1.88;;;13.70;99.90;;;;;;5154381;27;20482;-70
2023/05/21 05:50:25;;;;;;;5.45;2.08;;;13.70;99.90;;;;;;5154155;27;20397;-70
2023/05/21 05:52:50;;;;;;;5.32;2.00;;;13.70;99.90;;;;;;5154519;27;20034;-70
2023/05/21 05:55:16;;;;;;;3.97;1.98;;;13.70;99.90;;;;;;5137107;27;20095;-70
2023/05/21 05:57:42;;;;;;;3.58;2.38;;;13.70;99.90;;;;;;5135280;27;20451;-70
2023/05/21 06:00:09;;;;;;;5.20;2.08;;;13.70;99.90;;;;;;5154160;27;20039;-71
2023/05/21 06:02:36;;;;;;;3.83;1.95;;;13.70;99.90;;;;;;5154404;27;20050;-70
2023/05/21 06:05:02;;;;;;;4.18;2.00;;;13.70;99.90;;;;;;5154749;27;20047;-70
2023/05/21 06:07:28;;;;;;;4.82;2.20;;;13.80;99.90;;;;;;5154002;27;20099;-71
2023/05/21 06:09:53;;;;;;;4.20;2.08;;;13.80;99.90;;;;;;5136521;27;20051;-70
2023/05/21 06:12:19;;;;;;;2.88;1.60;;;13.80;99.90;;;;;;5136253;27;20050;-70
2023/05/21 06:14:46;;;;;;;4.03;1.90;;;13.80;99.90;;;;;;5136132;27;20046;-70
2023/05/21 06:17:12;;;;;;;5.07;1.80;;;13.80;99.90;;;;;;5135589;27;20050;-70
2023/05/21 06:19:38;;;;;;;5.53;1.67;;;13.90;99.90;;;;;;5154098;27;20047;-70
2023/05/21 06:22:04;;;;;;;4.72;1.80;;;13.90;99.90;;;;;;5154036;27;20103;-70
2023/05/21 06:24:30;;;;;;;3.85;2.08;;;13.90;99.90;;;;;;5104316;27;20049;-71
2023/05/21 06:26:55;;;;;;;3.10;2.00;;;13.90;99.90;;;;;;5122446;27;20122;-70
2023/05/21 06:29:21;;;;;;;3.47;2.20;;;14.00;99.90;;;;;;5122094;27;20064;-70
2023/05/21 06:31:47;;;;;;;5.07;2.15;;;13.90;99.90;;;;;;5157653;27;20099;-71
2023/05/21 06:34:13;;;;;;;3.67;2.05;;;13.90;99.90;;;;;;5139293;27;20506;-70
2023/05/21 06:36:39;;;;;;;3.03;1.80;;;14.00;99.90;;;;;;5157418;27;20042;-70
2023/05/21 06:39:04;;;;;;;3.22;1.75;;;13.90;99.90;;;;;;5157565;27;20453;-70
2023/05/21 06:41:30;;;;;;;5.40;2.42;;;14.00;99.90;;;;;;5157606;27;20065;-71
2023/05/21 06:43:56;;;;;;;3.92;2.05;;;14.00;99.90;;;;;;5157791;27;20125;-70
2023/05/21 06:46:21;;;;;;;5.38;1.90;;;14.00;99.90;;;;;;5157460;27;20474;-70
2023/05/21 06:48:47;;;;;;;5.40;2.10;;;14.00;99.90;;;;;;5157303;27;20043;-70
2023/05/21 06:51:13;;;;;;;4.40;2.10;;;14.00;99.90;;;;;;5157394;27;20557;-70
2023/05/21 06:53:39;;;;;;;5.78;1.85;;;14.10;99.90;;;;;;5139038;27;20042;-70
2023/05/21 06:56:04;;;;;;;5.60;1.92;;;14.10;99.90;;;;;;5157082;27;20074;-70
2023/05/21 06:58:30;;;;;;;3.55;1.70;;;14.10;99.90;;;;;;5157255;27;20039;-69
2023/05/21 07:01:02;;;;;;;4.25;1.95;;;14.10;99.90;;;;;;5159025;27;20051;-70
2023/05/21 07:03:28;;;;;;;2.57;1.70;;;14.20;99.90;;;;;;5158306;27;20038;-69
2023/05/21 07:05:53;;;;;;;5.30;1.98;;;14.20;99.90;;;;;;5157207;27;20482;-70
2023/05/21 07:08:19;;;;;;;3.08;1.90;;;14.20;99.90;;;;;;5138269;27;20567;-69
2023/05/21 07:10:45;;;;;;;4.28;2.00;;;14.20;99.90;;;;;;5157049;27;20057;-70
2023/05/21 07:13:11;;;;;;;3.65;2.08;;;14.20;99.90;;;;;;5157104;27;20100;-69
2023/05/21 07:15:37;;;;;;;3.53;1.83;;;14.30;99.90;;;;;;5138370;27;20039;-69
2023/05/21 07:18:03;;;;;;;5.00;1.98;;;14.30;99.90;;;;;;5137911;27;20415;-70
2023/05/21 07:20:28;;;;;;;4.30;1.90;;;14.30;99.90;;;;;;5157134;27;20086;-70
2023/05/21 07:22:54;;;;;;;5.10;2.40;;;14.40;99.90;;;;;;5156454;27;20047;-71
2023/05/21 07:25:20;;;;;;;4.70;1.77;;;14.40;99.90;;;;;;5157021;27;20038;-69
2023/05/21 07:27:46;;;;;;;3.65;1.70;;;14.40;99.90;;;;;;5137030;27;20034;-70
2023/05/21 07:30:13;;;;;;;5.45;1.92;;;14.40;99.90;;;;;;5156692;27;20054;-71
2023/05/21 07:32:38;;;;;;;4.57;1.92;;;14.50;99.90;;;;;;5156202;27;20482;-70
2023/05/21 07:35:05;;;;;;;6.60;1.70;;;14.50;99.90;;;;;;5138352;27;20129;-71
2023/05/21 07:37:31;;;;;;;2.80;1.70;;;14.60;99.90;;;;;;5138141;27;20041;-70
2023/05/21 07:40:00;;;;;;;4.95;2.05;;;14.60;99.90;;;;;;5137969;27;20043;-70
2023/05/21 07:42:26;;;;;;;5.07;1.88;;;14.70;99.90;;;;;;5155069;27;20030;-70
2023/05/21 07:44:51;;;;;;;2.47;1.60;;;14.80;99.90;;;;;;5156124;27;20069;-71
2023/05/21 07:47:17;;;;;;;5.40;2.20;;;14.80;99.90;;;;;;5155055;27;20510;-70
2023/05/21 07:49:43;;;;;;;6.05;2.03;;;14.80;99.90;;;;;;5155684;27;20053;-70
2023/05/21 07:52:09;;;;;;;4.57;2.00;;;14.90;99.90;;;;;;5156187;27;20078;-69
2023/05/21 07:54:34;;;;;;;3.42;1.67;;;14.90;99.90;;;;;;5156340;27;20121;-69
2023/05/21 07:57:03;;;;;;;3.95;2.00;;;15.00;99.90;;;;;;5156170;27;20371;-70
2023/05/21 07:59:29;;;;;;;4.68;1.80;;;15.00;99.90;;;;;;5137515;27;20057;-70
2023/05/21 08:01:55;;;;;;;4.22;2.00;;;15.10;99.90;;;;;;5156126;27;20038;-70
2023/05/21 08:04:21;;;;;;;4.75;2.20;;;15.10;99.90;;;;;;5156826;27;20047;-71
2023/05/21 08:06:47;;;;;;;3.92;1.63;;;15.20;99.90;;;;;;5157339;27;20046;-72
2023/05/21 08:09:13;;;;;;;4.03;1.88;;;15.20;99.90;;;;;;5137631;27;20039;-70
2023/05/21 08:11:39;;;;;;;5.88;2.10;;;15.30;99.90;;;;;;5137409;27;20390;-70
2023/05/21 08:14:05;;;;;;;5.32;2.42;;;15.30;99.90;;;;;;5137553;27;20053;-71
2023/05/21 08:16:30;;;;;;;4.47;2.33;;;15.30;99.90;;;;;;5155430;27;20114;-71
2023/05/21 08:18:56;;;;;;;4.70;1.83;;;15.40;99.90;;;;;;5155633;27;20094;-71
2023/05/21 08:21:22;;;;;;;4.88;1.98;;;15.40;99.90;;;;;;5155627;27;20054;-71
2023/05/21 08:23:48;;;;;;;5.40;2.35;;;15.50;99.90;;;;;;5137491;27;20039;-71
2023/05/21 08:26:16;;;;;;;3.90;1.85;;;15.50;99.90;;;;;;5155660;27;20046;-72
2023/05/21 08:28:42;;;;;;;3.25;1.65;;;15.50;99.90;;;;;;5155087;27;20046;-71
2023/05/21 08:31:08;;;;;;;4.35;1.70;;;15.60;99.90;;;;;;5155879;27;20499;-71
2023/05/21 08:33:37;;;;;;;4.05;1.70;;;15.70;99.90;;;;;;5155113;27;20042;-71
2023/05/21 08:36:06;;;;;;;3.05;1.98;;;15.80;99.90;;;;;;5155629;27;20050;-71
2023/05/21 08:38:33;;;;;;;3.15;1.70;;;15.90;99.90;;;;;;5155358;27;20046;-72
2023/05/21 08:40:59;;;;;;;4.40;1.65;;;15.90;99.90;;;;;;5137516;27;20442;-72
2023/05/21 08:43:27;;;;;;;3.50;1.88;;;16.00;99.90;;;;;;5136994;27;20114;-71
2023/05/21 08:45:55;;;;;;;3.20;1.77;;;16.00;99.90;;;;;;5155264;27;20103;-71
2023/05/21 08:48:22;;;;;;;3.25;1.75;;;16.10;99.90;;;;;;5154800;27;20034;-72
2023/05/21 08:50:50;;;;;;;3.83;1.90;;;16.10;99.90;;;;;;5155125;27;20076;-71
2023/05/21 08:53:16;;;;;;;4.80;1.85;;;16.10;99.90;;;;;;5136943;27;20122;-72
2023/05/21 08:55:42;;;;;;;6.10;2.53;;;16.20;99.90;;;;;;5136779;27;20129;-71
2023/05/21 08:58:09;;;;;;;4.40;2.00;;;16.20;99.90;;;;;;5154563;27;20047;-71
2023/05/21 09:00:35;;;;;;;2.80;1.80;;;16.20;99.90;;;;;;5155165;27;20050;-70
2023/05/21 09:03:06;;;;;;;6.07;2.08;;;16.20;99.90;;;;;;5136603;27;20051;-72
2023/05/21 09:05:34;;;;;;;3.75;1.88;;;16.20;99.90;;;;;;5155625;27;20103;-71
2023/05/21 09:08:05;;;;;;;4.97;1.95;;;16.20;99.90;;;;;;5154598;27;20099;-72
2023/05/21 09:10:46;;;;;;;5.60;1.80;;;16.20;99.90;;;;;;5138389;27;20082;-71
2023/05/21 09:13:13;;;;;;;3.67;1.92;;;16.30;99.90;;;;;;5154842;27;20294;-71
2023/05/21 09:15:40;;;;;;;3.97;1.90;;;16.30;99.90;;;;;;5154924;27;20039;-72
2023/05/21 09:18:06;;;;;;;5.30;1.95;;;16.40;99.90;;;;;;5136300;27;20101;-72
2023/05/21 09:20:32;;;;;;;2.95;1.85;;;16.40;99.90;;;;;;5155599;27;20054;-72
2023/05/21 09:23:03;;;;;;;3.33;2.10;;;16.40;99.90;;;;;;5156052;27;20475;-72
2023/05/21 09:25:30;;;;;;;4.38;1.98;;;16.50;99.90;;;;;;5154823;27;20494;-73
2023/05/21 09:27:56;;;;;;;2.55;1.80;;;16.50;99.90;;;;;;5154401;27;20046;-72
2023/05/21 09:30:22;;;;;;;4.35;2.00;;;16.60;99.90;;;;;;5155229;27;20092;-71
2023/05/21 09:32:58;;;;;;;4.70;1.88;;;16.50;99.90;;;;;;5136525;27;20039;-71
2023/05/21 09:35:24;;;;;;;4.10;1.90;;;16.60;99.90;;;;;;5136683;27;20054;-72
2023/05/21 09:37:52;;;;;;;4.10;1.95;;;16.60;99.90;;;;;;5136370;27;20129;-74
2023/05/21 09:40:21;;;;;;;3.63;1.98;;;16.60;99.90;;;;;;5155193;27;20055;-72
2023/05/21 09:42:53;;;;;;;3.03;2.20;;;16.70;99.90;;;;;;5154817;27;20493;-72
2023/05/21 09:45:23;;;;;;;4.55;2.30;;;16.70;99.90;;;;;;5155064;27;20050;-71
2023/05/21 09:47:51;;;;;;;4.78;2.45;;;16.80;99.90;;;;;;5154429;27;20066;-72
2023/05/21 09:50:21;;;;;;;4.13;2.00;;;16.90;99.90;;;;;;5154571;27;20391;-70
2023/05/21 09:52:49;;;;;;;4.78;2.15;;;16.90;99.90;;;;;;5136212;27;20050;-72
2023/05/21 09:55:15;;;;;;;5.70;2.28;;;17.00;99.90;;;;;;5136133;27;20126;-72
2023/05/21 09:57:42;;;;;;;5.28;2.65;;;17.00;99.90;;;;;;5135832;27;20031;-70
2023/05/21 10:00:16;;;;;;;4.85;2.35;;;17.10;99.90;;;;;;5157906;27;20099;-71
2023/05/21 10:02:45;;;;;;;6.75;2.65;;;17.20;99.90;;;;;;5159029;27;20129;-72
2023/05/21 10:05:12;;;;;;;4.15;2.47;;;17.40;99.90;;;;;;5158227;27;20086;-71
2023/05/21 10:07:41;;;;;;;5.20;2.63;;;17.40;99.90;;;;;;5158199;27;20115;-71
2023/05/21 10:10:13;;;;;;;3.38;2.88;;;17.50;99.90;;;;;;5158203;27;20046;-70
2023/05/21 10:12:43;;;;;;;5.60;2.67;;;17.60;99.90;;;;;;5158520;27;20368;-71
2023/05/21 10:15:14;;;;;;;4.75;2.80;;;17.70;99.90;;;;;;5158750;27;20528;-71
2023/05/21 10:17:40;;;;;;;6.90;3.70;;;17.70;99.90;;;;;;5140230;27;20059;-73
2023/05/21 10:20:09;;;;;;;4.47;3.17;;;17.80;99.90;;;;;;5139985;27;20475;-71
2023/05/21 10:22:36;;;;;;;3.33;2.60;;;17.80;99.90;;;;;;5157719;27;20049;-71
2023/05/21 10:25:02;;;;;;;6.80;3.58;;;17.90;99.90;;;;;;5157962;27;20508;-71
2023/05/21 10:27:29;;;;;;;6.20;3.75;;;17.90;99.90;;;;;;5158409;27;20039;-71
2023/05/21 10:29:58;;;;;;;8.73;4.50;;;18.00;99.90;;;;;;5157247;27;20482;-71
2023/05/21 10:32:26;;;;;;;5.03;3.92;;;18.10;99.90;;;;;;5157696;27;20573;-74
2023/05/21 10:34:53;;;;;;;5.90;4.35;;;18.20;99.90;;;;;;5157632;27;20042;-72
2023/05/21 10:37:23;;;;;;;7.57;4.43;;;18.10;99.90;;;;;;5157913;27;20486;-72
2023/05/21 10:39:49;;;;;;;7.55;4.72;;;18.10;99.90;;;;;;5157744;27;20089;-72
2023/05/21 10:42:30;;;;;;;6.75;4.57;;;18.10;99.90;;;;;;5139301;27;20061;-72
2023/05/21 10:45:16;;;;;;;7.15;4.30;;;18.10;99.90;;;;;;5157777;27;20046;-70
2023/05/21 10:47:57;;;;;;;6.68;4.55;;;18.10;99.90;;;;;;5139373;27;20042;-71
2023/05/21 10:50:50;;;;;;;7.68;5.13;;;18.10;99.90;;;;;;5157848;27;20042;-71
2023/05/21 10:53:42;;;;;;;10.02;5.25;;;18.20;99.90;;;;;;5122528;27;20424;-71
2023/05/21 10:56:11;;;;;;;8.50;5.45;;;18.20;99.90;;;;;;5138840;27;20081;-71
2023/05/21 10:59:06;;;;;;;6.45;5.32;;;18.20;99.90;;;;;;5138191;27;20051;-71
2023/05/21 11:01:36;;;;;;;12.10;5.80;;;18.20;99.90;;;;;;5157256;27;20082;-70
2023/05/21 11:04:04;;;;;;;9.30;5.95;;;18.10;99.90;;;;;;5138715;27;20050;-71
2023/05/21 11:06:30;;;;;;;8.73;5.45;;;18.10;99.90;;;;;;5157141;27;20169;-70
2023/05/21 11:09:00;;;;;;;7.68;5.55;;;18.10;99.90;;;;;;5138129;27;20130;-71
2023/05/21 11:11:42;;;;;;;11.38;7.10;;;18.10;99.90;;;;;;5139693;27;20046;-70
2023/05/21 11:14:42;;;;;;;10.63;7.10;;;18.10;99.90;;;;;;5157200;27;20046;-70
2023/05/21 11:17:37;;;;;;;10.88;6.95;;;18.10;99.90;;;;;;5094385;27;20093;-71
2023/05/21 11:20:07;;;;;;;9.48;7.30;;;18.10;99.90;;;;;;5156977;27;20045;-70
2023/05/21 11:22:35;;;;;;;10.20;6.63;;;18.10;99.90;;;;;;5157549;27;20554;-71
2023/05/21 11:25:01;;;;;;;9.55;6.20;;;18.20;99.90;;;;;;5138857;27;20496;-71
2023/05/21 11:27:31;;;;;;;9.18;6.22;;;18.20;99.90;;;;;;5138179;27;20050;-71
2023/05/21 11:29:57;;;;;;;8.10;5.93;;;18.20;99.90;;;;;;5156303;27;20055;-70
2023/05/21 11:32:23;;;;;;;8.80;6.32;;;18.30;99.90;;;;;;5156782;27;20512;-70
2023/05/21 11:34:49;;;;;;;9.38;5.68;;;18.40;99.90;;;;;;5156717;27;20079;-70
2023/05/21 11:37:15;;;;;;;11.25;6.85;;;18.40;99.90;;;;;;5156412;27;20034;-70
2023/05/21 11:39:42;;;;;;;9.27;6.70;;;18.50;99.90;;;;;;5156069;27;20436;-71
2023/05/21 11:42:08;;;;;;;12.07;6.82;;;18.60;99.90;;;;;;5156581;27;20490;-70
2023/05/21 11:44:41;;;;;;;11.80;7.65;;;18.70;99.90;;;;;;5156143;27;20058;-70
2023/05/21 11:47:08;;;;;;;10.75;7.88;;;18.80;99.90;;;;;;5156554;27;20083;-70
2023/05/21 11:49:35;;;;;;;11.43;7.93;;;18.80;99.90;;;;;;5156344;27;20090;-70
2023/05/21 11:52:05;;;;;;;9.52;6.65;;;18.90;99.90;;;;;;5138308;27;20488;-70
2023/05/21 11:54:36;;;;;;;10.02;7.03;;;19.00;99.90;;;;;;5155996;27;20491;-71
2023/05/21 11:57:08;;;;;;;12.63;7.57;;;19.00;99.90;;;;;;5156133;27;20402;-71
2023/05/21 11:59:35;;;;;;;;;;;19.10;99.90;;;;;;5156141;27;20100;-71
2023/05/21 12:02:02;;;;;;;12.70;8.48;;;19.10;99.90;;;;;;5156120;27;19919;-71
2023/05/21 12:04:35;;;;;;;11.95;7.85;;;19.10;99.90;;;;;;5156229;27;20046;-70
2023/05/21 12:07:08;;;;;;;10.48;8.52;;;19.20;99.90;;;;;;5137212;27;20125;-72
2023/05/21 12:09:49;;;;;;;;;;;19.30;99.90;;;;;;5137774;27;20054;-72
2023/05/21 12:12:20;;;;;;;13.65;9.50;;;19.40;99.90;;;;;;5156157;27;19919;-71
2023/05/21 12:14:48;;;;;;;14.75;9.93;;;19.40;99.90;;;;;;5155894;27;20045;-70
2023/05/21 12:17:21;;;;;;;14.30;9.98;;;19.40;99.90;;;;;;5137365;27;20417;-71
2023/05/21 12:19:52;;;;;;;12.13;9.18;;;19.40;99.90;;;;;;5133367;27;20051;-72
2023/05/21 12:22:18;;;;;;;13.60;9.25;;;19.50;99.90;;;;;;5116106;27;20090;-70
2023/05/21 12:24:44;;;;;;;14.20;9.68;;;19.50;99.90;;;;;;5135071;27;20077;-71
2023/05/21 12:27:12;;;;;;;12.68;10.00;;;19.50;99.90;;;;;;5134898;27;20047;-70
2023/05/21 12:29:42;;;;;;;15.20;10.38;;;19.60;99.90;;;;;;5137793;27;20074;-74
2023/05/21 12:32:11;;;;;;;14.80;10.25;;;19.60;99.90;;;;;;5134946;27;20050;-72
2023/05/21 12:34:47;;;;;;;13.77;9.98;;;19.60;99.90;;;;;;5134721;27;20501;-71
2023/05/21 12:37:24;;;;;;;14.02;10.13;;;19.60;99.90;;;;;;5134766;27;20042;-71
2023/05/21 12:39:54;;;;;;;15.68;11.30;;;19.60;99.90;;;;;;5134181;27;20478;-72
2023/05/21 12:42:31;;;;;;;15.05;10.45;;;19.60;99.90;;;;;;5133607;27;20101;-71
2023/05/21 12:44:57;;;;;;;15.88;11.18;;;19.70;99.90;;;;;;5134630;27;20058;-71
2023/05/21 12:47:25;;;;;;;14.20;9.93;;;19.70;99.90;;;;;;5133492;27;20043;-70
2023/05/21 12:49:55;;;;;;;14.73;10.73;;;19.80;99.90;;;;;;5134369;27;20039;-71